Goodyear, AZ

2:28 AM MST on March 06, 2015 (GMT -0700)
I-10 & Estrella Pkwy. | Change Station
CLOSE
Current Station
Personal Weather Station
Location: Goodyear, AZ
Elevation: 1004 ft
Nearby Weather Stations

Elev 1004 ft 33.46 °N, 112.40 °W | Updated 8 minutes ago

Clear
Clear
51.5 °F
Feels Like 51.5 °F
N
0.0
Wind Variable Wind from North
Gusts 0.0 mph

Today
High -- | Low -- °F
--% Chance of Precip.
Yesterday
High -- | Low -- °F
Precip. -- in
6:51 AM 6:30 PM
Full, 100% visible
Pressure 30.16 in
Visibility 9.0 miles
Clouds Clear
Dew Point Not available.
Humidity Not available.
Rainfall in
Snow Depth Not available.
UV 0 out of 12
Pollen 9.70 out of 12
Air Quality Not available.
Flu Activity Not available.
METAR KLUF 060858Z AUTO 33004KT 9SM CLR 10/02 A3017 RMK AO2 SLP212 T00980017 56001 $

More Conditions Fewer Conditions

Pressure 30.16 in
Visibility 9.0 miles
Clouds Clear
Dew Point Not available.
Humidity Not available.
Rainfall in
Snow Depth Not available.
UV 0 out of 12
Pollen 9.70 out of 12
Air Quality Not available.
Flu Activity Not available.
METAR KLUF 060858Z AUTO 33004KT 9SM CLR 10/02 A3017 RMK AO2 SLP212 T00980017 56001 $

More Conditions Fewer Conditions

10-Day Weather Forecast

Almanac

Astronomy

Mar. 06, 2015 Rise Set
Actual Time
Civil Twilight
Nautical Twilight
Astronomical Twilight
Moon
Length of Visible Light
Length of Day
Tomorrow will be .
, % of the Moon is Illuminated

Today's Extremes

State Highs State Lows

Community

WunderPhotos

Upload Photos

1,803,213 photos uploaded!

WunderBlogs® & News

Nearby

Air Quality

  Air Quality AQ Index Pollutant
Not available.

Snow Depth

Station Depth Elevation

Earthquake Activity

City Distance Mag. Time & Date
Minimum magnitude displayed is 2.5.

Coastal Water Temperatures

Place Temperature

Nearby Weather Stations